Airfield :
LOGIN :

Register | Disclaimer

   EN    FR    IT 

 










Legend :    VFR   Marginal VFR   IFR   Intensive IFR   Very Intensive IFR
Visi :
Ceiling :
>= 8 km
>= 3000ft
5 to 8 km
1000 to 3000 ft
1500m to 5 km
500 to 1000 ft
800 to 1500m
200 to 500 ft
< 800m
< 200 ft
Symbols :   Thunderstorms  Fog  Heavy snow  Heavy precipitations  Wind > 20 kt
SIGMETs :     Misc.  Thunderstorms  Icing  Turbulence  Mountain Waves  Volcanic Ashes






- Airport Elevation : 17 ft
- IATA code : GRS


LIRS - Grosseto

CURRENT METAR :
  • 141355Z 23009KT 9999 FEW030 24/19 Q1023

EXPIRED METARs :
  • 141255Z 23007KT 9999 FEW030 24/19 Q1023 RMK FEW VIS MIN 9999 WIND THR03 23007KT WIND THR21 22008KT BLU
  • 141155Z 23008KT 190V260 9999 FEW030 24/18 Q1024 RMK FEW VIS MIN 9999 WIND THR03 23007KT WIND THR21 23008KT BLU
  • 141055Z 23007KT CAVOK 23/18 Q1024 RMK SKC VIS MIN 9999 WIND THR03 25007KT WIND THR21 24008KT BLU
  • 140955Z 24006KT CAVOK 22/16 Q1025 RMK FEW FEW200 VIS MIN 9999 WIND THR03 25007KT WIND THR21 25006KT BLU

Expired Forecast.



MET'MAP, your aeronautical weather chart ! - Copyright ORBIFLY December 2007 - Disclaimer

ORBIFLY MET'MAP TEAM :

Programming & Development : Alexandra Zaïnal
Original concept : Baudouin d'Aumeries
Technical & hardware support : Manuel Goepfert
Assistance : Marc-Olivier Méhu




SOURCES & CREDITS :

   NOAA